Terminal Aerodrome Forecast
Issued by NWS

Current Version | Previous Version | Text Only | Print | Product List | Glossary On
Versions: 1 2 3 4 5 6 7 8 9 10 11 12 13 14 15 16
000
FTUS43 KBIS 041738
TAFJMS
TAF
KJMS 041738Z 0418/0518 10009KT P6SM FEW060
     FM050000 12009KT P6SM SKC
     FM051600 14012KT P6SM BKN150=

USA.gov is the U.S. government's official web portal to all federal, state and local government web resources and services.